Terminal Aerodrome Forecast
Issued by NWS

Home | Current Version | Previous Version | Text Only | Print | Product List | Glossary On
Versions: 1 2 3 4 5 6 7 8 9 10 11 12 13 14 15 16 17 18 19 20 21 22 23 24 25 26 27 28 29 30 31 32 33 34 35 36
973
FTUS41 KGYX 291757 AAA
TAFMHT
TAF AMD
KMHT 291757Z 2918/3018 09008KT P6SM OVC010
     FM300000 09005KT 5SM -DZ BR OVC007
     FM301100 19008KT 5SM SHRA BR OVC010 WS015/23025KT
     FM301500 22008KT 6SM HZ BKN035=

USA.gov is the U.S. government's official web portal to all federal, state and local government web resources and services.